createdAt,value
2022-09-17T00:01:31.838Z,29.92
2022-09-17T00:04:02.185Z,32.20
2022-09-17T00:06:31.572Z,30.48
2022-09-17T00:08:59.367Z,29.05
2022-09-17T00:11:30.880Z,29.70
2022-09-17T00:14:01.038Z,41.03
2022-09-17T00:16:38.398Z,31.85
2022-09-17T00:19:10.261Z,38.38
2022-09-17T00:21:37.991Z,43.15
2022-09-17T00:24:07.060Z,33.50
2022-09-17T00:26:36.840Z,31.58
2022-09-17T00:29:05.772Z,37.20
2022-09-17T00:31:34.558Z,35.13
2022-09-17T00:34:04.063Z,35.92
2022-09-17T00:36:35.414Z,30.92
2022-09-17T00:39:04.886Z,33.90
2022-09-17T00:41:34.683Z,31.90
2022-09-17T00:44:41.380Z,34.05
2022-09-17T00:47:31.235Z,34.38
2022-09-17T00:50:06.754Z,31.02
2022-09-17T00:52:43.579Z,31.13
2022-09-17T00:55:20.885Z,29.67
2022-09-17T00:57:52.458Z,31.95
2022-09-17T01:00:21.099Z,31.98
2022-09-17T01:02:49.000Z,32.85
2022-09-17T01:05:17.079Z,40.60
2022-09-17T01:10:38.295Z,32.33
2022-09-17T01:13:05.792Z,32.35
2022-09-17T01:15:47.846Z,37.85
2022-09-17T01:18:41.560Z,31.83
2022-09-17T01:21:33.439Z,34.42
2022-09-17T01:24:03.113Z,33.92
2022-09-17T01:29:22.119Z,33.42
2022-09-17T01:32:07.775Z,37.95
2022-09-17T01:34:43.785Z,34.88
2022-09-17T01:37:22.528Z,35.50
2022-09-17T01:40:02.175Z,33.58
2022-09-17T01:42:36.121Z,32.95
2022-09-17T01:45:10.067Z,35.15
2022-09-17T01:47:47.910Z,33.58
2022-09-17T01:50:25.425Z,37.13
2022-09-17T01:52:55.819Z,45.17
2022-09-17T01:55:30.022Z,39.55
2022-09-17T01:58:04.809Z,40.58
2022-09-17T02:00:34.042Z,36.78
2022-09-17T02:03:07.334Z,38.63
2022-09-17T02:05:46.252Z,37.92
2022-09-17T02:08:25.530Z,39.45
2022-09-17T02:11:03.573Z,40.17
2022-09-17T02:13:35.332Z,37.85
2022-09-17T02:16:11.207Z,40.33
2022-09-17T02:18:38.876Z,43.30
2022-09-17T02:21:18.010Z,44.42
2022-09-17T02:24:06.754Z,46.70
2022-09-17T02:26:39.623Z,50.67
2022-09-17T02:29:17.150Z,55.88
2022-09-17T02:31:44.873Z,49.38
2022-09-17T02:34:12.566Z,49.88
2022-09-17T02:36:41.042Z,48.03
2022-09-17T02:39:09.328Z,54.45
2022-09-17T02:41:58.964Z,46.78
2022-09-17T02:44:31.181Z,52.50
2022-09-17T02:47:23.004Z,46.03
2022-09-17T02:50:38.251Z,46.65
2022-09-17T02:53:20.840Z,49.70
2022-09-17T02:55:58.416Z,41.78
2022-09-17T02:58:47.186Z,45.40
2022-09-17T03:01:38.698Z,41.50
2022-09-17T03:04:10.196Z,45.50
2022-09-17T03:06:38.542Z,42.67
2022-09-17T03:09:06.304Z,42.95
2022-09-17T03:11:34.276Z,46.92
2022-09-17T03:14:02.352Z,42.60
2022-09-17T03:16:30.367Z,41.53
2022-09-17T03:18:57.883Z,40.90
2022-09-17T03:21:25.448Z,44.25
2022-09-17T03:23:53.191Z,45.28
2022-09-17T03:26:20.710Z,40.15
2022-09-17T03:28:48.456Z,45.22
2022-09-17T03:31:15.943Z,42.50
2022-09-17T03:33:43.477Z,44.03
2022-09-17T03:36:11.047Z,45.85
2022-09-17T03:38:38.827Z,36.85
2022-09-17T03:41:07.697Z,44.33
2022-09-17T03:43:35.676Z,40.57
2022-09-17T03:48:35.329Z,45.00
2022-09-17T03:51:03.406Z,43.28
2022-09-17T03:53:31.875Z,46.25
2022-09-17T03:56:01.295Z,44.15
2022-09-17T03:58:30.729Z,41.53
2022-09-17T04:00:58.447Z,37.45
2022-09-17T04:03:27.614Z,40.58
2022-09-17T04:05:55.723Z,41.95
2022-09-17T04:08:23.681Z,43.33
2022-09-17T04:10:54.215Z,44.53
2022-09-17T04:13:22.016Z,41.72
2022-09-17T04:15:49.882Z,41.20
2022-09-17T04:18:17.349Z,42.65
2022-09-17T04:20:44.877Z,38.28
2022-09-17T04:23:12.952Z,37.97
2022-09-17T04:25:41.320Z,37.97
2022-09-17T04:28:08.943Z,32.25
2022-09-17T04:30:36.731Z,33.03
2022-09-17T04:33:04.948Z,33.70
2022-09-17T04:35:32.495Z,30.40
2022-09-17T04:38:00.113Z,33.92
2022-09-17T04:40:28.739Z,31.17
2022-09-17T04:43:03.382Z,36.57
2022-09-17T04:45:33.483Z,33.55
2022-09-17T04:48:01.985Z,36.30
2022-09-17T04:50:29.979Z,34.55
2022-09-17T04:52:58.422Z,35.83
2022-09-17T04:55:26.565Z,33.08
2022-09-17T04:57:54.183Z,34.00
2022-09-17T05:00:23.301Z,30.13
2022-09-17T05:02:54.396Z,35.30
2022-09-17T05:05:23.402Z,34.65
2022-09-17T05:07:52.065Z,34.83
2022-09-17T05:10:22.871Z,31.05
2022-09-17T05:12:52.295Z,25.42
2022-09-17T05:15:21.471Z,30.50
2022-09-17T05:17:50.066Z,24.98
2022-09-17T05:20:18.113Z,27.25
2022-09-17T05:22:48.767Z,24.95
2022-09-17T05:25:18.597Z,25.13
2022-09-17T05:27:46.622Z,24.55
2022-09-17T05:30:14.328Z,24.38
2022-09-17T05:32:42.069Z,26.55
2022-09-17T05:35:10.527Z,24.40
2022-09-17T05:37:38.502Z,26.40
2022-09-17T05:40:08.179Z,24.95
2022-09-17T05:42:35.907Z,27.17
2022-09-17T05:45:04.097Z,25.92
2022-09-17T05:47:31.745Z,20.88
2022-09-17T05:49:59.624Z,22.73
2022-09-17T05:52:29.017Z,22.73
2022-09-17T05:54:57.397Z,23.50
2022-09-17T05:57:25.272Z,28.83
2022-09-17T05:59:52.775Z,27.85
2022-09-17T06:02:20.706Z,24.35
2022-09-17T06:04:48.286Z,22.60
2022-09-17T06:07:16.768Z,23.65
2022-09-17T06:09:44.496Z,24.48
2022-09-17T06:12:12.139Z,23.33
2022-09-17T06:14:39.618Z,24.50
2022-09-17T06:17:07.393Z,24.08
2022-09-17T06:19:35.528Z,22.98
2022-09-17T06:22:03.657Z,25.10
2022-09-17T06:24:31.828Z,29.50
2022-09-17T06:26:59.495Z,27.35
2022-09-17T06:29:27.851Z,24.27
2022-09-17T06:31:55.722Z,23.65
2022-09-17T06:34:23.314Z,24.33
2022-09-17T06:36:50.895Z,30.30
2022-09-17T06:39:18.531Z,27.30
2022-09-17T06:41:46.310Z,27.98
2022-09-17T06:44:16.663Z,35.53
2022-09-17T06:46:44.399Z,29.40
2022-09-17T06:49:12.153Z,32.90
2022-09-17T06:51:39.585Z,33.55
2022-09-17T06:54:08.443Z,37.55
2022-09-17T06:56:36.155Z,31.00
2022-09-17T06:59:03.887Z,24.05
2022-09-17T07:01:31.734Z,22.40
2022-09-17T07:03:59.376Z,19.50
2022-09-17T07:06:27.136Z,17.08
2022-09-17T07:08:54.667Z,17.60
2022-09-17T07:11:23.102Z,15.40
2022-09-17T07:13:50.728Z,14.52
2022-09-17T07:16:18.502Z,16.23
2022-09-17T07:18:46.314Z,18.38
2022-09-17T07:21:13.836Z,18.95
2022-09-17T07:23:41.473Z,15.60
2022-09-17T07:26:13.960Z,18.17
2022-09-17T07:28:42.360Z,19.25
2022-09-17T07:31:15.911Z,15.93
2022-09-17T07:33:45.591Z,17.35
2022-09-17T07:36:15.118Z,17.88
2022-09-17T07:41:13.424Z,14.60
2022-09-17T07:43:42.807Z,17.60
2022-09-17T07:46:15.732Z,18.25
2022-09-17T07:48:43.690Z,16.08
2022-09-17T07:51:37.377Z,15.75
2022-09-17T07:54:06.272Z,16.25
2022-09-17T07:56:34.770Z,16.93
2022-09-17T07:59:03.812Z,19.00
2022-09-17T08:01:36.581Z,20.02
2022-09-17T08:04:04.660Z,25.25
2022-09-17T08:06:36.143Z,23.80
2022-09-17T08:09:04.342Z,25.08
2022-09-17T08:14:25.652Z,27.05
2022-09-17T08:16:56.175Z,22.65
2022-09-17T08:19:24.549Z,27.35
2022-09-17T08:21:52.300Z,26.25
2022-09-17T08:24:19.965Z,23.65
2022-09-17T08:26:47.485Z,16.50
2022-09-17T08:29:15.075Z,20.70
2022-09-17T08:31:42.655Z,18.92
2022-09-17T08:34:11.308Z,16.00
2022-09-17T08:36:39.194Z,16.20
2022-09-17T08:39:06.877Z,14.98
2022-09-17T08:41:40.592Z,12.98
2022-09-17T08:44:20.364Z,13.57
2022-09-17T08:46:58.631Z,27.88
2022-09-17T08:49:32.361Z,21.23
2022-09-17T08:52:38.701Z,15.75
2022-09-17T08:55:35.064Z,27.95
2022-09-17T08:58:18.022Z,24.60
2022-09-17T09:01:03.819Z,27.45
2022-09-17T09:03:43.753Z,18.02
2022-09-17T09:08:59.877Z,17.25
2022-09-17T09:11:31.102Z,24.17
2022-09-17T09:14:31.488Z,21.13
2022-09-17T09:17:04.560Z,31.60
2022-09-17T09:19:40.606Z,22.08
2022-09-17T09:22:27.550Z,16.02
2022-09-17T09:25:11.881Z,26.83
2022-09-17T09:27:51.935Z,16.35
2022-09-17T09:30:23.737Z,22.15
2022-09-17T09:33:17.944Z,21.90
2022-09-17T09:35:45.831Z,17.08
2022-09-17T09:38:43.555Z,25.75
2022-09-17T09:41:40.384Z,21.98
2022-09-17T09:44:13.373Z,17.02
2022-09-17T09:47:00.965Z,24.08
2022-09-17T09:49:32.048Z,21.25
2022-09-17T09:52:51.295Z,21.77
2022-09-17T09:55:36.961Z,20.48
2022-09-17T09:58:26.652Z,26.98
2022-09-17T10:00:54.505Z,22.40
2022-09-17T10:03:23.784Z,23.75
2022-09-17T10:06:04.292Z,19.42
2022-09-17T10:08:34.292Z,25.30
2022-09-17T10:11:13.853Z,23.42
2022-09-17T10:16:21.399Z,21.58
2022-09-17T10:18:51.527Z,22.67
2022-09-17T10:21:23.646Z,19.30
2022-09-17T10:23:52.079Z,22.45
2022-09-17T10:26:29.550Z,18.25
2022-09-17T10:29:00.635Z,29.73
2022-09-17T10:31:47.468Z,17.83
2022-09-17T10:34:30.393Z,21.17
2022-09-17T10:36:58.660Z,20.88
2022-09-17T10:39:32.909Z,17.30
2022-09-17T10:42:03.244Z,22.35
2022-09-17T10:44:36.767Z,15.70
2022-09-17T10:47:13.746Z,14.40
2022-09-17T10:50:06.729Z,17.20
2022-09-17T10:52:47.392Z,21.15
2022-09-17T10:55:18.816Z,13.77
2022-09-17T10:58:08.289Z,15.80
2022-09-17T11:00:52.496Z,33.85
2022-09-17T11:03:38.455Z,20.70
2022-09-17T11:06:27.415Z,15.48
2022-09-17T11:09:14.213Z,14.23
2022-09-17T11:12:06.169Z,14.05
2022-09-17T11:14:41.395Z,17.88
2022-09-17T11:17:36.855Z,17.60
2022-09-17T11:20:16.620Z,17.55
2022-09-17T11:22:56.024Z,21.33
2022-09-17T11:25:38.666Z,29.48
2022-09-17T11:28:22.508Z,21.35
2022-09-17T11:31:11.693Z,23.52
2022-09-17T11:34:23.449Z,27.35
2022-09-17T11:37:17.461Z,29.90
2022-09-17T11:39:51.764Z,34.17
2022-09-17T11:42:28.307Z,27.63
2022-09-17T11:45:02.730Z,27.80
2022-09-17T11:47:43.411Z,24.52
2022-09-17T11:50:21.757Z,30.25
2022-09-17T11:52:51.983Z,22.35
2022-09-17T11:55:27.474Z,19.10
2022-09-17T11:58:01.339Z,13.05
2022-09-17T12:00:31.652Z,11.25
2022-09-17T12:03:16.567Z,11.50
2022-09-17T12:05:53.821Z,15.13
2022-09-17T12:08:23.290Z,19.88
2022-09-17T12:11:10.089Z,15.85
2022-09-17T12:13:51.587Z,13.82
2022-09-17T12:16:25.846Z,19.13
2022-09-17T12:19:11.687Z,17.73
2022-09-17T12:21:50.211Z,14.07
2022-09-17T12:24:29.455Z,15.55
2022-09-17T12:27:28.572Z,15.75
2022-09-17T12:30:00.642Z,34.05
2022-09-17T12:33:10.140Z,25.55
2022-09-17T12:36:05.993Z,17.45
2022-09-17T12:38:59.491Z,15.25
2022-09-17T12:41:40.991Z,12.48
2022-09-17T12:44:24.071Z,13.32
2022-09-17T12:46:57.410Z,12.45
2022-09-17T12:49:46.860Z,11.95
2022-09-17T12:52:23.050Z,14.25
2022-09-17T12:55:00.017Z,11.45
2022-09-17T12:57:59.698Z,13.35
2022-09-17T13:00:37.639Z,11.35
2022-09-17T13:03:17.243Z,11.05
2022-09-17T13:06:26.097Z,10.45
2022-09-17T13:09:06.265Z,13.45
2022-09-17T13:12:02.012Z,17.20
2022-09-17T13:14:44.915Z,12.20
2022-09-17T13:17:31.133Z,11.10
2022-09-17T13:20:24.623Z,12.90
2022-09-17T13:22:54.456Z,11.82
2022-09-17T13:25:23.230Z,15.35
2022-09-17T13:28:03.513Z,15.27
2022-09-17T13:30:58.447Z,11.90
2022-09-17T13:33:51.624Z,13.63
2022-09-17T13:36:39.367Z,13.43
2022-09-17T13:39:11.619Z,15.75
2022-09-17T13:41:42.172Z,14.90
2022-09-17T13:44:12.538Z,17.67
2022-09-17T13:46:40.216Z,14.57
2022-09-17T13:49:16.486Z,13.15
2022-09-17T13:51:46.531Z,15.40
2022-09-17T13:54:16.890Z,12.55
2022-09-17T13:57:02.756Z,14.93
2022-09-17T13:59:31.455Z,16.17
2022-09-17T14:02:30.572Z,14.80
2022-09-17T14:07:47.849Z,12.10
2022-09-17T14:10:15.507Z,14.68
2022-09-17T14:13:00.886Z,13.18
2022-09-17T14:15:49.590Z,13.50
2022-09-17T14:18:29.496Z,10.07
2022-09-17T14:23:56.465Z,9.98
2022-09-17T14:26:46.127Z,9.15
2022-09-17T14:29:32.023Z,9.30
2022-09-17T14:31:59.737Z,8.30
2022-09-17T14:34:28.664Z,10.00
2022-09-17T14:36:57.004Z,9.70
2022-09-17T14:39:36.106Z,8.82
2022-09-17T14:42:07.417Z,9.05
2022-09-17T14:44:35.802Z,7.35
2022-09-17T14:47:17.595Z,7.82
2022-09-17T14:49:47.226Z,7.57
2022-09-17T14:52:31.406Z,8.75
2022-09-17T14:55:17.477Z,7.32
2022-09-17T14:58:04.866Z,7.93
2022-09-17T15:00:40.410Z,7.63
2022-09-17T15:03:21.928Z,8.50
2022-09-17T15:05:51.263Z,7.85
2022-09-17T15:08:22.707Z,18.88
2022-09-17T15:11:02.257Z,11.68
2022-09-17T15:13:41.777Z,7.47
2022-09-17T15:16:27.338Z,10.25
2022-09-17T15:18:58.072Z,9.32
2022-09-17T15:21:37.295Z,7.53
2022-09-17T15:24:29.330Z,7.95
2022-09-17T15:26:59.945Z,7.15
2022-09-17T15:29:31.222Z,8.55
2022-09-17T15:31:58.927Z,8.27
2022-09-17T15:34:26.516Z,10.05
2022-09-17T15:37:19.050Z,10.75
2022-09-17T15:39:53.098Z,10.73
2022-09-17T15:42:30.851Z,9.88
2022-09-17T15:45:19.908Z,10.65
2022-09-17T15:47:54.007Z,11.63
2022-09-17T15:50:34.123Z,17.05
2022-09-17T15:53:10.821Z,16.52
2022-09-17T15:55:41.643Z,13.73
2022-09-17T15:58:41.517Z,13.57
2022-09-17T16:01:15.086Z,16.73
2022-09-17T16:03:45.227Z,12.55
2022-09-17T16:06:19.306Z,12.20
2022-09-17T16:08:48.123Z,11.45
2022-09-17T16:11:16.783Z,14.83
2022-09-17T16:13:49.596Z,12.75
2022-09-17T16:16:27.309Z,16.83
2022-09-17T16:18:55.568Z,14.23
2022-09-17T16:21:23.153Z,15.60
2022-09-17T16:23:51.392Z,13.15
2022-09-17T16:26:23.508Z,15.07
2022-09-17T16:28:54.680Z,12.98
2022-09-17T16:31:24.068Z,14.75
2022-09-17T16:33:51.652Z,13.77
2022-09-17T16:36:19.418Z,13.65
2022-09-17T16:38:47.659Z,13.75
2022-09-17T16:41:15.363Z,13.13
2022-09-17T16:43:43.373Z,11.80
2022-09-17T16:46:12.844Z,11.82
2022-09-17T16:48:41.395Z,11.48
2022-09-17T16:51:11.072Z,10.68
2022-09-17T16:53:39.918Z,14.30
2022-09-17T16:56:11.763Z,11.83
2022-09-17T16:58:40.305Z,14.30
2022-09-17T17:01:09.323Z,11.50
2022-09-17T17:03:37.069Z,13.05
2022-09-17T17:06:04.844Z,12.98
2022-09-17T17:08:33.939Z,12.23
2022-09-17T17:11:01.654Z,16.13
2022-09-17T17:13:29.298Z,12.95
2022-09-17T17:15:57.042Z,14.13
2022-09-17T17:18:25.116Z,15.18
2022-09-17T17:20:52.704Z,14.82
2022-09-17T17:23:20.312Z,18.95
2022-09-17T17:25:47.848Z,34.60
2022-09-17T17:28:15.487Z,30.50
2022-09-17T17:30:47.532Z,25.23
2022-09-17T17:33:16.735Z,25.08
2022-09-17T17:35:45.598Z,45.58
2022-09-17T17:38:13.227Z,23.17
2022-09-17T17:40:40.867Z,22.70
2022-09-17T17:43:08.356Z,17.35
2022-09-17T17:45:35.907Z,18.15
2022-09-17T17:48:03.445Z,15.85
2022-09-17T17:50:32.123Z,17.35
2022-09-17T17:52:59.860Z,20.33
2022-09-17T17:55:27.362Z,30.02
2022-09-17T17:58:01.358Z,21.25
2022-09-17T18:00:29.747Z,17.70
2022-09-17T18:02:57.411Z,18.80
2022-09-17T18:05:24.960Z,18.75
2022-09-17T18:07:52.495Z,19.58
2022-09-17T18:10:20.608Z,20.25
2022-09-17T18:12:50.707Z,18.75
2022-09-17T18:15:18.961Z,19.00
2022-09-17T18:20:18.850Z,22.77
2022-09-17T18:22:46.366Z,19.63
2022-09-17T18:25:13.959Z,19.52
2022-09-17T18:27:42.259Z,18.25
2022-09-17T18:30:10.623Z,20.55
2022-09-17T18:32:39.748Z,25.83
2022-09-17T18:35:07.596Z,19.65
2022-09-17T18:37:35.345Z,22.75
2022-09-17T18:40:03.399Z,18.17
2022-09-17T18:42:31.229Z,21.20
2022-09-17T18:44:58.842Z,21.95
2022-09-17T18:47:27.079Z,33.55
2022-09-17T18:49:54.660Z,19.17
2022-09-17T18:52:22.591Z,18.63
2022-09-17T18:54:50.105Z,34.88
2022-09-17T18:57:17.629Z,31.05
2022-09-17T18:59:45.359Z,38.38
2022-09-17T19:02:13.369Z,39.33
2022-09-17T19:04:41.104Z,29.90
2022-09-17T19:07:08.765Z,30.27
2022-09-17T19:09:36.332Z,27.42
2022-09-17T19:12:05.495Z,24.02
2022-09-17T19:14:33.927Z,24.10
2022-09-17T19:17:02.330Z,17.80
2022-09-17T19:19:30.386Z,19.50
2022-09-17T19:21:58.102Z,20.90
2022-09-17T19:24:25.758Z,16.33
2022-09-17T19:26:53.661Z,20.88
2022-09-17T19:29:21.373Z,14.43
2022-09-17T19:31:49.057Z,13.30
2022-09-17T19:34:17.113Z,13.10
2022-09-17T19:36:44.666Z,14.65
2022-09-17T19:39:12.178Z,16.00
2022-09-17T19:41:39.713Z,15.93
2022-09-17T19:44:07.412Z,14.43
2022-09-17T19:46:35.140Z,17.58
2022-09-17T19:49:02.868Z,16.70
2022-09-17T19:51:31.073Z,20.17
2022-09-17T19:53:58.780Z,20.13
2022-09-17T19:56:27.811Z,25.17
2022-09-17T19:58:56.837Z,24.15
2022-09-17T20:01:24.727Z,20.02
2022-09-17T20:03:53.435Z,20.90
2022-09-17T20:06:22.469Z,26.23
2022-09-17T20:08:54.153Z,21.58
2022-09-17T20:11:24.491Z,21.83
2022-09-17T20:13:59.633Z,22.00
2022-09-17T20:16:27.648Z,20.38
2022-09-17T20:18:55.430Z,22.10
2022-09-17T20:21:26.236Z,21.38
2022-09-17T20:23:54.924Z,19.33
2022-09-17T20:26:23.203Z,18.33
2022-09-17T20:28:52.155Z,17.77
2022-09-17T20:31:22.919Z,21.60
2022-09-17T20:33:55.285Z,19.75
2022-09-17T20:36:26.292Z,19.42
2022-09-17T20:39:11.059Z,19.55
2022-09-17T20:41:43.161Z,18.87
2022-09-17T20:44:10.972Z,18.65
2022-09-17T20:46:39.023Z,17.83
2022-09-17T20:49:06.947Z,23.30
2022-09-17T20:51:35.488Z,19.85
2022-09-17T20:54:03.640Z,20.40
2022-09-17T20:56:33.796Z,22.17
2022-09-17T20:59:18.825Z,18.67
2022-09-17T21:01:49.782Z,20.23
2022-09-17T21:04:19.747Z,27.15
2022-09-17T21:06:50.903Z,20.48
2022-09-17T21:09:18.621Z,23.63
2022-09-17T21:11:48.256Z,24.00
2022-09-17T21:16:46.356Z,24.13
2022-09-17T21:19:16.258Z,17.13
2022-09-17T21:24:11.472Z,19.63
2022-09-17T21:26:40.031Z,24.63
2022-09-17T21:29:07.727Z,23.42
2022-09-17T21:31:37.499Z,25.95
2022-09-17T21:34:08.417Z,20.75
2022-09-17T21:36:37.914Z,24.30
2022-09-17T21:39:14.583Z,20.70
2022-09-17T21:41:43.286Z,19.02
2022-09-17T21:44:12.573Z,23.52
2022-09-17T21:46:42.326Z,20.70
2022-09-17T21:49:10.458Z,22.85
2022-09-17T21:51:41.427Z,20.33
2022-09-17T21:54:11.823Z,22.60
2022-09-17T21:56:39.374Z,20.20
2022-09-17T21:59:10.013Z,20.92
2022-09-17T22:01:46.233Z,20.58
2022-09-17T22:04:20.113Z,22.55
2022-09-17T22:06:49.425Z,19.73
2022-09-17T22:09:23.220Z,15.98
2022-09-17T22:11:51.732Z,18.40
2022-09-17T22:14:21.775Z,22.20
2022-09-17T22:16:53.107Z,20.98
2022-09-17T22:19:22.907Z,26.38
2022-09-17T22:21:52.435Z,23.17
2022-09-17T22:26:55.741Z,36.05
2022-09-17T22:29:26.102Z,22.30
2022-09-17T22:31:53.824Z,37.30
2022-09-17T22:34:22.953Z,23.23
2022-09-17T22:36:51.586Z,35.60
2022-09-17T22:39:22.504Z,19.83
2022-09-17T22:41:50.710Z,31.58
2022-09-17T22:44:20.133Z,17.80
2022-09-17T22:46:49.919Z,23.00
2022-09-17T22:49:18.655Z,16.33
2022-09-17T22:51:47.292Z,16.17
2022-09-17T22:54:17.261Z,20.88
2022-09-17T22:56:46.608Z,32.72
2022-09-17T22:59:14.549Z,16.45
2022-09-17T23:01:42.459Z,17.27
2022-09-17T23:04:10.226Z,21.55
2022-09-17T23:06:39.948Z,27.88
2022-09-17T23:09:08.179Z,18.63
2022-09-17T23:11:38.868Z,23.25
2022-09-17T23:14:10.167Z,17.00
2022-09-17T23:16:43.472Z,23.73
2022-09-17T23:19:11.908Z,18.63
2022-09-17T23:21:40.275Z,25.40
2022-09-17T23:24:08.898Z,21.85
2022-09-17T23:26:36.653Z,20.05
2022-09-17T23:29:05.560Z,26.13
2022-09-17T23:31:37.298Z,27.58
2022-09-17T23:34:05.966Z,22.65
2022-09-17T23:36:36.990Z,23.70
2022-09-17T23:39:06.625Z,21.50
2022-09-17T23:41:40.057Z,20.20
2022-09-17T23:44:14.559Z,24.33
2022-09-17T23:46:43.913Z,31.42
2022-09-17T23:49:13.035Z,24.50
2022-09-17T23:51:41.226Z,21.38
2022-09-17T23:54:09.059Z,24.13
2022-09-17T23:56:37.239Z,25.63
2022-09-17T23:59:05.006Z,25.75
